Time;durP1;ratioP1;P1;durP2;ratioP2;P2;SDS_P1;SDS_P2;PMS_P1;PMS_P2;Temp;Humidity;BMP_temperature;BMP_pressure;BME280_temperature;BME280_humidity;BME280_pressure;Samples;Min_cycle;Max_cycle;Signal;HPM_P1;HPM_P2
2023/06/26 00:02:12;;;;;;;13.63;9.93;;;;;;;28.27;52.75;99918.53;4955455;29;20027;-74
2023/06/26 00:04:37;;;;;;;13.60;10.43;;;;;;;28.26;52.54;99916.81;4955365;29;20034;-74
2023/06/26 00:07:04;;;;;;;14.27;11.75;;;;;;;28.25;52.46;99913.31;4955267;29;20035;-76
2023/06/26 00:09:30;;;;;;;14.07;11.00;;;;;;;28.24;52.66;99919.63;4954328;28;20024;-75
2023/06/26 00:11:55;;;;;;;13.57;10.80;;;;;;;28.24;52.51;99918.81;4955574;29;20369;-74
2023/06/26 00:14:21;;;;;;;13.32;9.82;;;;;;;28.25;52.91;99920.50;4955395;29;20027;-74
2023/06/26 00:16:49;;;;;;;12.80;10.20;;;;;;;28.24;52.63;99918.81;4955446;28;20038;-74
2023/06/26 00:19:15;;;;;;;13.00;10.23;;;;;;;28.24;52.51;99914.25;4955553;28;20035;-75
2023/06/26 00:21:40;;;;;;;15.48;11.43;;;;;;;28.25;52.49;99915.13;4955111;28;20042;-76
2023/06/26 00:24:06;;;;;;;14.07;10.93;;;;;;;28.24;52.59;99919.63;4955218;28;20027;-74
2023/06/26 00:26:31;;;;;;;13.35;10.20;;;;;;;28.24;52.83;99916.13;4955418;29;20031;-75
2023/06/26 00:28:56;;;;;;;13.23;10.82;;;;;;;28.24;52.61;99924.16;4954959;29;20704;-74
2023/06/26 00:31:22;;;;;;;12.38;10.23;;;;;;;28.24;52.67;99913.44;4955227;29;20159;-74
2023/06/26 00:33:47;;;;;;;13.13;10.88;;;;;;;28.22;52.61;99913.56;4937921;29;20384;-74
2023/06/26 00:36:13;;;;;;;11.85;10.55;;;;;;;28.22;52.31;99918.94;4954608;29;20035;-75
2023/06/26 00:38:38;;;;;;;13.43;10.57;;;;;;;28.22;52.45;99913.56;4955037;28;20031;-77
2023/06/26 00:41:04;;;;;;;13.50;10.60;;;;;;;28.23;52.41;99917.94;4954939;28;20042;-74
2023/06/26 00:43:30;;;;;;;12.48;10.50;;;;;;;28.19;52.72;99912.94;4954933;28;20041;-74
2023/06/26 00:45:55;;;;;;;12.23;10.50;;;;;;;28.21;52.65;99916.34;4955064;29;20023;-73
2023/06/26 00:48:21;;;;;;;12.27;9.77;;;;;;;28.21;52.56;99911.81;4955035;29;20427;-76
2023/06/26 00:50:47;;;;;;;13.65;10.73;;;;;;;28.20;52.84;99906.59;4954653;28;20024;-74
2023/06/26 00:53:12;;;;;;;13.40;9.68;;;;;;;28.19;52.27;99904.88;4954830;28;20039;-75
2023/06/26 00:55:38;;;;;;;12.57;10.10;;;;;;;28.18;52.28;99900.50;4954512;28;20446;-74
2023/06/26 00:58:04;;;;;;;12.40;10.27;;;;;;;28.17;52.27;99901.50;4937418;29;20047;-75
2023/06/26 01:00:29;;;;;;;11.82;9.95;;;;;;;28.18;52.23;99905.88;4937418;29;20050;-75
2023/06/26 01:02:58;;;;;;;13.13;10.13;;;;;;;28.18;52.56;99911.25;4954565;29;20051;-76
2023/06/26 01:05:25;;;;;;;13.07;9.68;;;;;;;28.17;52.64;99906.88;4954252;29;20061;-75
2023/06/26 01:07:50;;;;;;;11.75;9.77;;;;;;;28.18;52.33;99900.50;4954581;29;20023;-75
2023/06/26 01:10:17;;;;;;;14.98;10.57;;;;;;;28.14;52.63;99898.06;4937461;29;20402;-75
2023/06/26 01:12:43;;;;;;;12.75;9.73;;;;;;;28.14;52.43;99895.41;4954183;29;20031;-75
2023/06/26 01:15:09;;;;;;;14.25;10.13;;;;;;;28.12;52.58;99896.50;4954509;29;20081;-75
2023/06/26 01:17:36;;;;;;;14.02;10.70;;;;;;;28.12;52.69;99883.94;4954423;29;20038;-77
2023/06/26 01:20:08;;;;;;;13.15;9.52;;;;;;;28.13;52.62;99884.81;4953892;28;20411;-74
2023/06/26 01:22:45;;;;;;;12.40;9.95;;;;;;;28.12;52.45;99889.31;4954303;29;20480;-74
2023/06/26 01:25:38;;;;;;;12.55;10.00;;;;;;;28.11;52.25;99892.97;4954277;28;20038;-76
2023/06/26 01:28:05;;;;;;;12.45;9.52;;;;;;;28.13;52.49;99896.38;4954276;28;20023;-74
2023/06/26 01:30:32;;;;;;;12.32;9.93;;;;;;;28.10;52.44;99891.28;4956692;28;20521;-78
2023/06/26 01:32:59;;;;;;;13.30;9.95;;;;;;;28.12;52.55;99888.44;4942868;29;20487;-74
2023/06/26 01:35:25;;;;;;;11.82;9.30;;;;;;;28.11;52.64;99887.63;4954235;29;20034;-74
2023/06/26 01:37:50;;;;;;;10.85;8.88;;;;;;;28.09;52.22;99892.25;4954033;29;20033;-74
2023/06/26 01:40:16;;;;;;;11.57;9.43;;;;;;;28.10;52.55;99893.97;4954156;29;20442;-74
2023/06/26 01:42:41;;;;;;;12.30;8.98;;;;;;;28.11;52.49;99892.13;4954182;29;20035;-75
2023/06/26 01:45:18;;;;;;;11.25;8.75;;;;;;;28.09;52.29;99900.28;4954179;29;20027;-77
2023/06/26 01:47:49;;;;;;;12.93;9.80;;;;;;;28.09;52.75;99899.47;4953629;29;20031;-76
2023/06/26 01:50:21;;;;;;;11.48;10.25;;;;;;;28.09;52.76;99900.28;4954060;29;20454;-76
2023/06/26 01:53:06;;;;;;;13.57;9.65;;;;;;;28.08;52.83;99900.44;4953694;28;20499;-77
2023/06/26 01:55:35;;;;;;;11.70;8.75;;;;;;;28.10;52.53;99899.34;4954058;28;20034;-76
2023/06/26 01:58:01;;;;;;;10.90;9.20;;;;;;;28.10;52.76;99899.34;4953914;29;20031;-76
2023/06/26 02:00:28;;;;;;;13.18;9.15;;;;;;;28.08;53.06;99895.09;4954037;29;20476;-75
2023/06/26 02:02:54;;;;;;;13.57;9.57;;;;;;;28.07;52.69;99899.59;4953577;29;20030;-74
2023/06/26 02:05:19;;;;;;;12.32;10.07;;;;;;;28.08;52.66;99903.97;4953376;29;20050;-74
2023/06/26 02:07:45;;;;;;;11.85;10.07;;;;;;;28.07;52.65;99899.59;4953965;29;20034;-74
2023/06/26 02:10:10;;;;;;;11.75;9.00;;;;;;;28.05;52.68;99909.59;4953696;29;20031;-73
2023/06/26 02:12:37;;;;;;;12.65;10.07;;;;;;;28.07;53.04;99899.59;4953914;29;20490;-74
2023/06/26 02:15:04;;;;;;;10.70;9.30;;;;;;;28.08;52.77;99897.75;4953752;29;20035;-74
2023/06/26 02:17:29;;;;;;;12.32;9.55;;;;;;;28.06;52.66;99894.34;4953501;29;20039;-74
2023/06/26 02:19:54;;;;;;;10.45;8.63;;;;;;;28.05;52.90;99884.59;4954029;29;20034;-73
2023/06/26 02:22:20;;;;;;;12.50;9.63;;;;;;;28.04;52.77;99891.81;4953601;29;20023;-75
2023/06/26 02:24:45;;;;;;;10.50;8.60;;;;;;;28.04;52.75;99897.19;4953872;29;20026;-76
2023/06/26 02:27:11;;;;;;;10.82;9.07;;;;;;;28.05;53.27;99908.75;4953786;29;20067;-76
2023/06/26 02:29:37;;;;;;;11.23;8.63;;;;;;;28.06;53.07;99905.94;4953640;29;20118;-75
2023/06/26 02:32:03;;;;;;;10.93;8.45;;;;;;;28.04;53.14;99899.84;4953787;28;20487;-73
2023/06/26 02:34:30;;;;;;;12.45;9.13;;;;;;;28.06;53.22;99899.72;4957041;29;20037;-74
2023/06/26 02:36:56;;;;;;;12.30;9.25;;;;;;;28.04;53.09;99907.03;4957047;29;20031;-75
2023/06/26 02:39:21;;;;;;;11.73;8.50;;;;;;;28.03;53.06;99895.44;4957231;28;20555;-74
2023/06/26 02:41:47;;;;;;;12.20;9.30;;;;;;;28.03;53.18;99894.63;4954843;29;20031;-73
2023/06/26 02:44:14;;;;;;;12.75;9.05;;;;;;;28.04;52.91;99891.81;4957113;29;20506;-76
2023/06/26 02:46:39;;;;;;;11.30;9.23;;;;;;;28.01;53.18;99892.91;4956596;28;20098;-74
2023/06/26 02:49:05;;;;;;;13.20;8.80;;;;;;;28.01;53.34;99892.91;4956980;29;20110;-74
2023/06/26 02:51:32;;;;;;;10.73;8.75;;;;;;;28.01;53.35;99898.28;4957127;28;20031;-75
2023/06/26 02:53:57;;;;;;;11.25;8.85;;;;;;;28.02;53.27;99893.75;4956668;28;20039;-75
2023/06/26 02:56:23;;;;;;;10.95;8.80;;;;;;;27.99;53.19;99899.38;4950652;28;20082;-75
2023/06/26 02:58:48;;;;;;;12.10;9.00;;;;;;;28.01;53.15;99900.09;4956382;29;20034;-77
2023/06/26 03:01:14;;;;;;;13.02;9.65;;;;;;;27.99;53.55;99894.03;4956614;29;20058;-75
2023/06/26 03:03:41;;;;;;;11.95;8.52;;;;;;;28.01;53.11;99894.75;4956979;29;20030;-75
2023/06/26 03:06:07;;;;;;;11.95;9.15;;;;;;;27.99;53.33;99894.03;4956915;29;20023;-74
2023/06/26 03:08:36;;;;;;;10.57;8.40;;;;;;;27.99;53.33;99894.84;4956854;29;20056;-75
2023/06/26 03:11:01;;;;;;;10.85;9.63;;;;;;;28.01;53.41;99897.41;4956842;28;20073;-75
2023/06/26 03:13:26;;;;;;;12.88;8.88;;;;;;;27.98;53.48;99895.84;4956632;28;20094;-74
2023/06/26 03:15:52;;;;;;;13.50;9.68;;;;;;;27.98;53.31;99892.31;4956587;28;20472;-75
2023/06/26 03:18:17;;;;;;;12.18;9.65;;;;;;;27.98;53.52;99897.66;4956541;28;20027;-75
2023/06/26 03:20:42;;;;;;;12.85;10.00;;;;;;;27.99;53.63;99904.75;4956206;29;20106;-75
2023/06/26 03:23:08;;;;;;;10.98;9.43;;;;;;;27.97;53.22;99896.84;4956351;29;20111;-75
2023/06/26 03:25:33;;;;;;;13.90;9.35;;;;;;;27.97;53.43;99901.34;4939058;29;20118;-76
2023/06/26 03:27:59;;;;;;;12.30;9.45;;;;;;;27.97;53.64;99901.34;4956201;29;20123;-76
2023/06/26 03:30:24;;;;;;;15.95;10.55;;;;;;;27.97;53.74;99902.19;4956268;28;20027;-74
2023/06/26 03:32:49;;;;;;;13.85;10.20;;;;;;;27.97;53.63;99901.34;4956179;29;20051;-75
2023/06/26 03:35:15;;;;;;;10.75;8.88;;;;;;;27.97;53.53;99902.19;4956454;28;20050;-75
2023/06/26 03:37:40;;;;;;;13.40;9.75;;;;;;;27.97;53.71;99901.34;4956205;28;20031;-76
2023/06/26 03:40:06;;;;;;;12.70;9.95;;;;;;;27.97;53.59;99906.69;4956070;28;20082;-75
2023/06/26 03:42:32;;;;;;;13.38;8.80;;;;;;;27.96;53.28;99905.00;4956091;29;20029;-75
2023/06/26 03:44:57;;;;;;;11.32;9.55;;;;;;;27.96;53.72;99894.28;4955477;28;20035;-74
2023/06/26 03:47:23;;;;;;;12.23;9.20;;;;;;;27.95;53.50;99898.81;4956051;29;20036;-78
2023/06/26 03:49:48;;;;;;;13.07;9.23;;;;;;;27.95;53.69;99897.94;4956046;29;20059;-77
2023/06/26 03:52:14;;;;;;;12.77;9.23;;;;;;;27.94;53.40;99896.25;4938518;29;20047;-78
2023/06/26 03:54:39;;;;;;;13.07;9.43;;;;;;;27.95;53.41;99903.31;4956003;29;20430;-74
2023/06/26 03:57:05;;;;;;;12.50;9.68;;;;;;;27.94;53.66;99906.97;4955966;28;20023;-75
2023/06/26 03:59:30;;;;;;;12.95;10.00;;;;;;;27.96;53.38;99899.63;4955565;29;20080;-74
2023/06/26 04:01:56;;;;;;;12.07;9.52;;;;;;;27.92;53.43;99909.78;4955673;29;20034;-75
2023/06/26 04:04:21;;;;;;;11.57;9.02;;;;;;;27.93;53.49;99908.78;4955619;29;20032;-74
2023/06/26 04:06:47;;;;;;;14.50;10.02;;;;;;;27.92;53.40;99900.88;4955700;29;20038;-74
2023/06/26 04:09:12;;;;;;;13.23;9.48;;;;;;;27.92;53.48;99908.91;4955629;29;20055;-75
2023/06/26 04:11:38;;;;;;;14.65;9.80;;;;;;;27.93;53.82;99905.28;4955569;29;20452;-75
2023/06/26 04:14:03;;;;;;;12.93;9.52;;;;;;;27.92;53.83;99911.59;4955171;28;20030;-75
2023/06/26 04:16:29;;;;;;;12.68;9.80;;;;;;;27.92;53.46;99899.03;4954165;29;20022;-74
2023/06/26 04:18:56;;;;;;;12.27;9.27;;;;;;;27.92;53.54;99904.41;4955426;28;20043;-76
2023/06/26 04:21:24;;;;;;;12.65;10.32;;;;;;;27.92;53.43;99900.88;4955324;28;20027;-75
2023/06/26 04:23:50;;;;;;;13.52;9.45;;;;;;;27.91;53.49;99901.84;4955333;29;20027;-74
2023/06/26 04:26:16;;;;;;;12.07;9.00;;;;;;;27.89;53.66;99910.00;4955384;29;20020;-74
2023/06/26 04:28:42;;;;;;;14.30;10.13;;;;;;;27.90;53.81;99911.75;4954786;29;20019;-75
2023/06/26 04:31:08;;;;;;;14.18;9.80;;;;;;;27.88;53.68;99914.53;4955295;29;20102;-75
2023/06/26 04:33:35;;;;;;;13.45;10.02;;;;;;;27.87;53.91;99907.50;4955328;29;20027;-75
2023/06/26 04:36:03;;;;;;;14.05;10.25;;;;;;;27.88;53.70;99909.19;4955140;28;20051;-75
2023/06/26 04:38:28;;;;;;;10.52;8.30;;;;;;;27.87;53.69;99912.84;4955159;28;20058;-75
2023/06/26 04:40:53;;;;;;;12.50;9.48;;;;;;;27.87;53.46;99906.63;4954702;28;20077;-74
2023/06/26 04:43:19;;;;;;;12.48;9.60;;;;;;;27.86;53.37;99919.19;4954555;29;20487;-75
2023/06/26 04:45:44;;;;;;;14.05;9.68;;;;;;;27.84;53.42;99917.63;4955008;29;20039;-75
2023/06/26 04:48:10;;;;;;;12.60;9.25;;;;;;;27.82;53.59;99915.06;4954862;29;20046;-76
2023/06/26 04:50:35;;;;;;;11.57;9.18;;;;;;;27.81;53.71;99916.03;4954618;29;20035;-75
2023/06/26 04:53:01;;;;;;;12.60;8.93;;;;;;;27.79;53.41;99909.94;4954490;29;20566;-73
2023/06/26 04:55:27;;;;;;;11.15;8.70;;;;;;;27.77;53.63;99921.75;4953798;28;20035;-75
2023/06/26 04:57:52;;;;;;;12.48;8.77;;;;;;;27.76;53.78;99920.06;4954472;29;20051;-77
2023/06/26 05:00:18;;;;;;;11.60;8.43;;;;;;;27.74;53.64;99925.56;4954578;29;20538;-74
2023/06/26 05:02:44;;;;;;;10.60;7.93;;;;;;;27.72;53.59;99928.38;4954472;29;20027;-74
2023/06/26 05:05:10;;;;;;;11.20;8.25;;;;;;;27.71;53.31;99925.81;4954571;29;20054;-75
2023/06/26 05:07:36;;;;;;;12.05;8.82;;;;;;;27.72;53.30;99924.84;4954521;29;20102;-73
2023/06/26 05:10:01;;;;;;;12.52;8.18;;;;;;;27.70;53.67;99927.63;4954648;29;20070;-75
2023/06/26 05:12:27;;;;;;;10.15;7.82;;;;;;;27.67;53.33;99927.03;4953923;29;20451;-75
2023/06/26 05:14:52;;;;;;;9.20;7.90;;;;;;;27.70;53.24;99922.28;4954180;28;20403;-76
2023/06/26 05:17:18;;;;;;;11.52;7.53;;;;;;;27.68;53.14;99923.38;4954384;28;20039;-74
2023/06/26 05:19:43;;;;;;;10.38;7.53;;;;;;;27.66;53.44;99923.53;4954159;28;20483;-75
2023/06/26 05:22:09;;;;;;;9.70;7.95;;;;;;;27.66;53.27;99919.97;4954444;28;20159;-75
2023/06/26 05:24:35;;;;;;;9.48;7.32;;;;;;;27.66;53.20;99919.97;4954484;28;20106;-74
2023/06/26 05:27:02;;;;;;;8.88;7.25;;;;;;;27.66;53.56;99925.34;4954073;28;20027;-74
2023/06/26 05:29:29;;;;;;;10.20;7.30;;;;;;;27.64;53.79;99932.69;4954415;28;20052;-75
2023/06/26 05:31:56;;;;;;;9.95;7.05;;;;;;;27.64;53.22;99927.31;4949563;28;20102;-75
2023/06/26 05:34:23;;;;;;;10.02;7.20;;;;;;;27.64;53.32;99927.31;4943223;29;20031;-74
2023/06/26 05:36:51;;;;;;;8.93;6.80;;;;;;;27.63;53.52;99928.25;4935106;29;20035;-74
2023/06/26 05:39:17;;;;;;;8.23;7.05;;;;;;;27.61;53.41;99928.41;4935016;29;20024;-77
2023/06/26 05:41:46;;;;;;;8.68;6.78;;;;;;;27.64;53.56;99927.31;4946669;29;20511;-74
2023/06/26 05:44:11;;;;;;;10.45;6.00;;;;;;;27.60;53.31;99932.91;4954125;29;20484;-74
2023/06/26 05:46:37;;;;;;;9.73;6.57;;;;;;;27.63;53.59;99939.84;4954026;29;20035;-76
2023/06/26 05:49:03;;;;;;;9.35;6.68;;;;;;;27.58;53.49;99945.59;4954233;29;20038;-76
2023/06/26 05:51:29;;;;;;;9.27;6.20;;;;;;;27.60;53.75;99935.59;4953780;29;20031;-75
2023/06/26 05:53:54;;;;;;;10.55;7.50;;;;;;;27.63;53.39;99941.66;4953478;28;20134;-75
2023/06/26 05:56:20;;;;;;;10.57;6.75;;;;;;;27.60;53.65;99938.28;4953927;28;20030;-75
2023/06/26 05:58:47;;;;;;;10.32;6.60;;;;;;;27.60;53.53;99938.28;4953991;29;20049;-75
2023/06/26 06:01:12;;;;;;;8.02;5.97;;;;;;;27.58;53.54;99934.88;4953987;29;20023;-76
2023/06/26 06:03:39;;;;;;;8.60;6.13;;;;;;;27.59;53.23;99939.25;4936609;29;20376;-76
2023/06/26 06:06:05;;;;;;;9.73;6.90;;;;;;;27.57;53.64;99938.50;4954061;28;20130;-75
2023/06/26 06:08:30;;;;;;;9.50;6.75;;;;;;;27.59;53.29;99941.06;4939095;29;20050;-75
2023/06/26 06:10:56;;;;;;;7.53;6.15;;;;;;;27.58;53.26;99940.25;4957419;29;20028;-73
2023/06/26 06:13:21;;;;;;;10.25;6.43;;;;;;;27.57;53.33;99949.22;4957995;28;20030;-75
2023/06/26 06:15:46;;;;;;;10.43;7.07;;;;;;;27.58;53.43;99956.31;4957879;28;20479;-75
2023/06/26 06:18:12;;;;;;;8.73;6.30;;;;;;;27.58;53.38;99950.97;4957584;28;20042;-76
2023/06/26 06:20:37;;;;;;;9.10;6.32;;;;;;;27.60;53.24;99959.72;4957623;28;20023;-77
2023/06/26 06:23:03;;;;;;;9.60;6.72;;;;;;;27.60;53.00;99957.03;4957168;29;20411;-74
2023/06/26 06:25:28;;;;;;;8.80;6.50;;;;;;;27.59;53.17;99960.69;4957431;29;20391;-74
2023/06/26 06:27:53;;;;;;;10.23;6.18;;;;;;;27.58;53.38;99953.63;4940300;29;20045;-75
2023/06/26 06:30:19;;;;;;;10.05;6.63;;;;;;;27.58;53.29;99956.31;4957472;29;20534;-75
2023/06/26 06:32:45;;;;;;;8.63;6.20;;;;;;;27.60;53.18;99953.53;4957472;28;20094;-75
2023/06/26 06:35:11;;;;;;;8.98;6.18;;;;;;;27.58;53.23;99956.31;4957390;28;20023;-76
2023/06/26 06:37:37;;;;;;;9.10;6.47;;;;;;;27.59;53.57;99963.38;4956864;28;20035;-74
2023/06/26 06:40:05;;;;;;;11.02;5.95;;;;;;;27.58;53.33;99956.31;4957203;28;20083;-73
2023/06/26 06:42:31;;;;;;;9.30;6.20;;;;;;;27.57;53.31;99954.59;4957162;28;20488;-74
2023/06/26 06:44:56;;;;;;;8.18;5.53;;;;;;;27.56;53.36;99958.22;4957244;29;20085;-75
2023/06/26 06:47:21;;;;;;;11.02;6.63;;;;;;;27.58;53.80;99953.63;4956602;29;20499;-75
2023/06/26 06:49:47;;;;;;;8.98;6.05;;;;;;;27.60;53.11;99958.88;4957279;29;20035;-75
2023/06/26 06:52:12;;;;;;;12.23;6.90;;;;;;;27.60;53.37;99954.34;4938730;29;20043;-75
2023/06/26 06:54:58;;;;;;;11.45;6.65;;;;;;;27.58;53.10;99956.31;4939559;29;20058;-76
2023/06/26 06:57:24;;;;;;;11.07;7.03;;;;;;;27.61;53.23;99961.41;4956468;28;20110;-75
2023/06/26 06:59:50;;;;;;;16.63;7.75;;;;;;;27.61;53.52;99963.25;4956169;28;20048;-74
2023/06/26 07:02:19;;;;;;;10.55;7.38;;;;;;;27.60;53.40;99970.44;4956191;29;20486;-74
2023/06/26 07:04:45;;;;;;;10.50;7.38;;;;;;;27.62;53.74;99964.97;4956512;28;20031;-77
2023/06/26 07:07:10;;;;;;;11.23;7.35;;;;;;;27.63;53.97;99963.13;4955598;28;20098;-77
2023/06/26 07:09:36;;;;;;;10.98;7.72;;;;;;;27.64;53.95;99970.19;4956606;28;20495;-75
2023/06/26 07:12:02;;;;;;;10.73;7.30;;;;;;;27.66;53.67;99965.56;4956572;28;20047;-76
2023/06/26 07:14:28;;;;;;;9.85;7.30;;;;;;;27.65;54.01;99971.91;4952163;28;20032;-75
2023/06/26 07:16:53;;;;;;;10.80;7.50;;;;;;;27.67;53.96;99964.56;4937510;29;20037;-76
2023/06/26 07:19:19;;;;;;;11.52;7.53;;;;;;;27.65;53.76;99967.38;4936988;29;20059;-76
2023/06/26 07:21:46;;;;;;;12.10;6.90;;;;;;;27.64;53.81;99965.69;4943573;29;20019;-75
2023/06/26 07:24:11;;;;;;;11.15;6.30;;;;;;;27.66;53.88;99961.06;4939042;29;20023;-75
2023/06/26 07:26:37;;;;;;;10.25;6.68;;;;;;;27.66;53.46;99966.41;4956354;29;20114;-76
2023/06/26 07:29:02;;;;;;;9.15;5.97;;;;;;;27.65;53.41;99963.84;4956037;29;20035;-77
2023/06/26 07:31:28;;;;;;;10.57;6.50;;;;;;;27.64;53.25;99964.84;4956167;29;20036;-76
2023/06/26 07:33:53;;;;;;;10.82;6.47;;;;;;;27.64;53.30;99970.19;4956418;28;20023;-75
2023/06/26 07:36:19;;;;;;;10.15;6.38;;;;;;;27.63;53.29;99971.16;4956171;28;20376;-75
2023/06/26 07:38:44;;;;;;;11.52;6.88;;;;;;;27.62;53.71;99967.63;4956049;28;20109;-77
2023/06/26 07:41:09;;;;;;;10.38;6.03;;;;;;;27.62;53.27;99967.63;4956116;28;20435;-78
2023/06/26 07:43:35;;;;;;;20.90;11.93;;;;;;;27.62;53.30;99970.31;4964237;28;20457;-75
2023/06/26 07:46:00;;;;;;;52.08;25.75;;;;;;;27.61;53.23;99961.41;4966548;28;20022;-76
2023/06/26 07:48:25;;;;;;;34.17;16.33;;;;;;;27.64;53.01;99970.19;4957930;28;20030;-75
2023/06/26 07:50:51;;;;;;;31.77;17.40;;;;;;;27.60;53.21;99970.44;4959272;28;20601;-76
2023/06/26 07:53:16;;;;;;;17.17;8.77;;;;;;;27.61;53.50;99965.94;4938474;29;20047;-74
2023/06/26 07:55:43;;;;;;;15.65;8.35;;;;;;;27.60;53.18;99967.75;4955892;28;20670;-77
2023/06/26 07:58:09;;;;;;;14.75;7.68;;;;;;;27.59;52.98;99963.38;4960779;28;20387;-75
2023/06/26 08:00:34;;;;;;;15.18;8.05;;;;;;;27.60;53.16;99958.88;4974781;28;20051;-74
2023/06/26 08:03:00;;;;;;;12.18;7.13;;;;;;;27.59;53.13;99958.03;4958336;28;20546;-75
2023/06/26 08:05:25;;;;;;;14.00;7.43;;;;;;;27.60;53.31;99954.34;4955167;28;20440;-75
2023/06/26 08:07:51;;;;;;;11.38;6.78;;;;;;;27.60;53.03;99961.56;4937884;29;20027;-75
2023/06/26 08:10:16;;;;;;;8.73;5.70;;;;;;;27.57;53.28;99949.22;4955220;29;20514;-75
2023/06/26 08:12:44;;;;;;;12.35;6.70;;;;;;;27.58;53.18;99961.69;4955297;29;20031;-75
2023/06/26 08:15:10;;;;;;;11.35;6.05;;;;;;;27.59;53.36;99962.50;4938021;29;20031;-73
2023/06/26 08:17:36;;;;;;;10.25;5.35;;;;;;;27.59;52.95;99960.69;4954739;29;20431;-76
2023/06/26 08:20:02;;;;;;;9.18;5.97;;;;;;;27.58;52.89;99966.19;4954350;29;20027;-76
2023/06/26 08:22:27;;;;;;;11.35;5.68;;;;;;;27.57;53.14;99959.94;4954825;29;20046;-76
2023/06/26 08:24:53;;;;;;;8.82;5.30;;;;;;;27.57;53.17;99959.09;4954780;29;20480;-75
2023/06/26 08:27:18;;;;;;;12.98;7.60;;;;;;;27.57;53.42;99959.94;4954647;29;20033;-76
2023/06/26 08:29:43;;;;;;;12.57;6.53;;;;;;;27.58;53.30;99961.69;4954355;28;20039;-75
2023/06/26 08:32:09;;;;;;;11.38;6.30;;;;;;;27.57;53.02;99959.09;4954789;29;20042;-75
2023/06/26 08:34:34;;;;;;;10.32;5.97;;;;;;;27.57;53.36;99953.72;4954754;29;20038;-75
2023/06/26 08:37:00;;;;;;;8.98;5.50;;;;;;;27.56;53.24;99963.59;4937465;29;20030;-75
2023/06/26 08:39:25;;;;;;;8.77;5.72;;;;;;;27.57;53.30;99956.41;4937391;29;20031;-75
2023/06/26 08:41:51;;;;;;;9.95;5.93;;;;;;;27.57;53.01;99959.94;4954617;29;20066;-74
2023/06/26 08:44:16;;;;;;;9.02;5.78;;;;;;;27.56;53.16;99963.59;4954677;29;20091;-75
2023/06/26 08:46:42;;;;;;;11.80;6.10;;;;;;;27.56;53.30;99960.06;4954765;29;20499;-75
2023/06/26 08:49:34;;;;;;;13.60;7.07;;;;;;;27.55;53.20;99955.69;4954215;29;20035;-75
2023/06/26 08:52:06;;;;;;;12.02;6.82;;;;;;;27.55;53.14;99959.19;4953806;29;20050;-75
2023/06/26 08:54:40;;;;;;;10.40;6.65;;;;;;;27.55;52.82;99956.53;4954448;29;20122;-74
2023/06/26 08:57:07;;;;;;;13.15;6.50;;;;;;;27.55;53.13;99956.53;4953411;28;20094;-74
2023/06/26 08:59:33;;;;;;;10.65;6.22;;;;;;;27.55;53.12;99961.06;4953839;29;20035;-75
2023/06/26 09:01:58;;;;;;;13.40;6.32;;;;;;;27.55;52.88;99964.56;4954240;29;20114;-75
2023/06/26 09:04:25;;;;;;;10.40;5.68;;;;;;;27.52;52.66;99956.78;4953640;29;20042;-75
2023/06/26 09:06:50;;;;;;;11.45;5.25;;;;;;;27.54;52.89;99960.19;4954316;29;20539;-74
2023/06/26 09:09:15;;;;;;;10.60;5.78;;;;;;;27.54;52.79;99960.19;4954505;28;20115;-75
2023/06/26 09:11:41;;;;;;;9.60;5.90;;;;;;;27.53;52.67;99969.22;4954305;28;20019;-75
2023/06/26 09:14:09;;;;;;;12.07;5.88;;;;;;;27.53;52.79;99957.63;4954087;29;20475;-75
2023/06/26 09:16:45;;;;;;;11.10;6.20;;;;;;;27.52;52.54;99956.78;4954250;29;20114;-74
2023/06/26 09:19:12;;;;;;;12.00;6.38;;;;;;;27.53;52.78;99958.50;4953668;29;20067;-75
2023/06/26 09:21:41;;;;;;;12.13;6.93;;;;;;;27.52;52.37;99959.47;4953926;29;20045;-74
2023/06/26 09:24:08;;;;;;;12.32;6.38;;;;;;;27.51;52.36;99964.94;4954413;29;20038;-76
2023/06/26 09:26:38;;;;;;;13.65;6.05;;;;;;;27.52;52.35;99955.94;4953982;29;20035;-76
2023/06/26 09:29:05;;;;;;;11.05;6.28;;;;;;;27.51;52.36;99965.81;4954203;29;20051;-77
2023/06/26 09:31:30;;;;;;;11.27;6.03;;;;;;;27.51;52.39;99973.84;4953727;29;20055;-75
2023/06/26 09:33:59;;;;;;;10.07;5.95;;;;;;;27.49;52.25;99967.75;4954213;28;20057;-74
2023/06/26 09:36:28;;;;;;;11.82;6.03;;;;;;;27.49;52.49;99973.09;4954018;28;20034;-74
2023/06/26 09:38:53;;;;;;;9.77;5.78;;;;;;;27.48;52.22;99966.91;4953224;28;20033;-74
2023/06/26 09:41:20;;;;;;;9.48;5.25;;;;;;;27.48;52.19;99971.41;4953756;28;20102;-73
2023/06/26 09:43:49;;;;;;;8.80;5.03;;;;;;;27.48;52.64;99976.75;4954051;29;20031;-75
2023/06/26 09:46:29;;;;;;;10.60;5.75;;;;;;;27.47;52.90;99969.72;4953806;29;20118;-74
2023/06/26 09:49:12;;;;;;;11.13;6.35;;;;;;;27.49;52.99;99965.06;4953756;29;20039;-75
2023/06/26 09:51:40;;;;;;;10.95;5.55;;;;;;;27.49;53.25;99973.09;4953663;29;20571;-76
2023/06/26 09:54:06;;;;;;;10.35;6.32;;;;;;;27.50;52.95;99971.28;4953886;29;20051;-74
2023/06/26 09:56:33;;;;;;;8.80;5.35;;;;;;;27.50;53.23;99973.97;4953514;28;20051;-77
2023/06/26 09:59:01;;;;;;;9.95;5.68;;;;;;;27.48;53.24;99974.09;4953862;29;20035;-76
2023/06/26 10:01:27;;;;;;;11.15;6.22;;;;;;;27.49;53.08;99978.47;4953657;29;20042;-74
2023/06/26 10:03:57;;;;;;;9.07;5.55;;;;;;;27.50;53.29;99972.13;4940531;28;20114;-76
2023/06/26 10:06:35;;;;;;;11.07;5.72;;;;;;;27.49;53.41;99978.47;4937573;29;20039;-76
2023/06/26 10:09:03;;;;;;;9.48;5.78;;;;;;;27.49;52.75;99975.78;4948778;29;20066;-74
2023/06/26 10:11:46;;;;;;;9.27;5.72;;;;;;;27.48;52.84;99972.28;4949006;29;20106;-75
2023/06/26 10:14:13;;;;;;;9.82;5.45;;;;;;;27.48;52.61;99974.09;4950947;29;20032;-76
2023/06/26 10:16:41;;;;;;;10.15;5.68;;;;;;;27.49;52.92;99975.78;4933316;29;20392;-75
2023/06/26 10:19:10;;;;;;;10.00;5.40;;;;;;;27.49;52.75;99970.44;4945695;29;20038;-75
2023/06/26 10:21:38;;;;;;;9.70;5.97;;;;;;;27.49;52.80;99978.47;4945346;29;20035;-75
2023/06/26 10:24:06;;;;;;;12.80;6.47;;;;;;;27.47;52.64;99975.06;4948717;29;20027;-75
2023/06/26 10:26:40;;;;;;;7.85;5.68;;;;;;;27.47;52.55;99981.25;4946520;29;20086;-75
2023/06/26 10:29:07;;;;;;;8.88;5.28;;;;;;;27.46;52.07;99976.88;4951723;29;20019;-75
2023/06/26 10:31:34;;;;;;;9.30;5.75;;;;;;;27.48;52.55;99982.13;4952850;29;20114;-76
2023/06/26 10:34:00;;;;;;;10.40;6.30;;;;;;;27.46;52.42;99984.09;4953090;29;20022;-75
2023/06/26 10:36:31;;;;;;;9.35;5.93;;;;;;;27.45;52.10;99982.38;4953213;29;20392;-76
2023/06/26 10:38:58;;;;;;;10.43;5.45;;;;;;;27.43;52.23;99979.81;4953009;29;20031;-74
2023/06/26 10:41:25;;;;;;;9.80;5.60;;;;;;;27.43;52.17;99978.97;4950433;29;20420;-75
2023/06/26 10:44:11;;;;;;;8.95;5.57;;;;;;;27.43;52.55;99978.97;4952659;29;20031;-74
2023/06/26 10:46:55;;;;;;;10.82;5.63;;;;;;;27.42;52.31;99982.63;4953761;28;20518;-73
2023/06/26 10:49:25;;;;;;;11.05;5.93;;;;;;;27.39;52.58;99982.84;4949595;28;20047;-74
2023/06/26 10:51:51;;;;;;;9.73;5.68;;;;;;;27.41;52.24;99980.94;4941742;28;20036;-73
2023/06/26 10:54:18;;;;;;;9.48;5.38;;;;;;;27.41;52.16;99980.94;4934801;28;20027;-74
2023/06/26 10:56:49;;;;;;;8.25;5.28;;;;;;;27.41;52.45;99983.59;4940372;29;20042;-73
2023/06/26 10:59:18;;;;;;;8.43;5.07;;;;;;;27.42;52.37;99988.84;4968466;28;20037;-73
2023/06/26 11:01:46;;;;;;;8.60;5.80;;;;;;;27.41;52.36;99981.75;4952507;28;20039;-72
2023/06/26 11:04:17;;;;;;;11.00;5.80;;;;;;;27.39;52.22;99977.50;4956195;29;20053;-74
2023/06/26 11:06:45;;;;;;;8.40;5.57;;;;;;;27.41;52.45;99986.28;4955073;28;20023;-73
2023/06/26 11:09:15;;;;;;;8.32;5.50;;;;;;;27.40;52.41;99984.59;4972929;28;20031;-73
2023/06/26 11:11:53;;;;;;;8.38;5.47;;;;;;;27.42;52.69;99987.97;4953715;29;20047;-74
2023/06/26 11:14:20;;;;;;;6.95;4.80;;;;;;;27.42;52.93;99982.63;4953875;29;20033;-74
2023/06/26 11:16:46;;;;;;;7.22;4.93;;;;;;;27.42;53.21;99980.81;4938555;29;20023;-75
2023/06/26 11:19:13;;;;;;;7.10;4.60;;;;;;;27.44;53.28;99983.34;4955744;29;20122;-75
2023/06/26 11:21:39;;;;;;;7.32;4.53;;;;;;;27.45;53.08;99985.06;4954827;29;20058;-75
2023/06/26 11:24:06;;;;;;;7.43;4.72;;;;;;;27.47;53.18;99975.06;4951258;29;20055;-76
2023/06/26 11:26:38;;;;;;;7.10;4.60;;;;;;;27.48;53.25;99982.13;4955841;28;20105;-73